Aérodrome :
LOGIN :

S'inscrire | Disclaimer

   EN    FR    IT 

 










Légende :    VFR   VFR Marginal   IFR   IFR Intensif   IFR Très Intensif
Visi : 
Plafond : 
>= 8 km
>= 3000ft
5 à 8 km
1000 à 3000 ft
1500m à 5 km
500 à 1000 ft
800 à 1500m
200 à 500 ft
< 800m
< 200 ft
Symboles :   Orages  Brouillard  Fortes neiges  Fortes précipitations  Vent > 20 kt
SIGMETs :   Divers  Orages  Givrage  Turbulence  Onde Orograph.  Cendres Volcan.






- Altitude de l'aérodrome : 19 ft
- Code IATA : LCY


EGLC - London City

DERNIER METAR :
  • 280750Z AUTO 01005KT 280V090 9999 NCD 13/06 Q1026

METARs EXPIRÉS :
  • 280720Z AUTO 01007KT 330V100 9999 NCD 12/05 Q1026
  • 280650Z AUTO 01007KT 320V070 9999 NCD 12/05 Q1026
  • 280620Z AUTO 35008KT 300V030 9999 NCD 11/05 Q1026
  • 280550Z AUTO 32006KT 280V360 9999 NCD 11/05 Q1026
  • 280520Z AUTO 31006KT 270V360 9999 NCD 10/05 Q1026

TAF TAF EGLC
Valide du 28 à 06h jusqu'au 28 à 15h UTC


280456Z 2806/2815 36006KT 9999 SCT045
ATIS : +44 20 7646 0224



MET'MAP, la Météo Aéronautique d'un coup d'oeil ! - Copyright ORBIFLY Décembre 2007 - Disclaimer

ORBIFLY MET'MAP TEAM :

Programmation & Développement : Alexandra Zaïnal
Sur une idée originale de : Baudouin d'Aumeries
Soutien technique & logistique : Manuel Goepfert
Assistance : Marc-Olivier Méhu

Contact : metmap@orbifly.com




SOURCES & CREDITS :

   NOAA